CJF8 weather

Biggar Airport
Biggar, Saskatchewan, Canada

Public forecast

Using degrees Celsius for public forecast. Weather courtesy of forecast.io.

Closest aviation weather report (METAR) to Biggar Airport

Closest report is North Battleford Airport, 44.1 nm (81.7 km) NNW. Retrieved 2020/06/03 14:21 UTC (21 minutes ago):

CYQW 031421Z AUTO 27016G25KT 9SM BKN013 OVC060 11/09 A2962 RMK PRESRR SLP035 DENSITY ALT 2100FT

Closest aviation forecast (TAF) to Biggar Airport

Closest forecast is North Battleford Airport, 44.1 nm (81.7 km) NNW. Retrieved 2020/06/03 12:57 UTC (2 hours ago):

TAF TAF CYQW 031153Z 0312/0324 12008KT P6SM FEW020 OVC100 TEMPO 0312/0315 P6SM -SHRA BKN020 OVC040 BECMG 0312/0314 30015G25KT FM031500 28020G30KT P6SM BKN050 BECMG 0316/0318 28025G35KT RMK FCST BASED ON AUTO OBS NXT FCST BY 031800Z